createdAt,value
2018-09-14T00:00:20.909Z,18.49
2018-09-14T00:02:49.961Z,18.09
2018-09-14T00:05:18.935Z,18.25
2018-09-14T00:07:47.926Z,18.26
2018-09-14T00:10:16.970Z,18.14
2018-09-14T00:12:46.004Z,18.06
2018-09-14T00:15:15.008Z,18.00
2018-09-14T00:17:44.040Z,17.69
2018-09-14T00:20:12.999Z,17.96
2018-09-14T00:22:41.989Z,17.98
2018-09-14T00:25:10.973Z,18.03
2018-09-14T00:27:39.930Z,18.12
2018-09-14T00:30:08.921Z,17.99
2018-09-14T00:32:37.877Z,17.79
2018-09-14T00:35:07.007Z,17.99
2018-09-14T00:37:36.060Z,17.80
2018-09-14T00:40:05.244Z,18.14
2018-09-14T00:42:34.281Z,18.00
2018-09-14T00:45:03.239Z,18.08
2018-09-14T00:47:32.294Z,18.10
2018-09-14T00:50:01.294Z,17.77
2018-09-14T00:52:30.239Z,18.12
2018-09-14T00:54:59.223Z,17.99
2018-09-14T00:57:28.203Z,18.14
2018-09-14T00:59:57.257Z,17.97
2018-09-14T01:02:26.198Z,17.98
2018-09-14T01:04:55.165Z,17.75
2018-09-14T01:07:24.130Z,17.76
2018-09-14T01:09:53.138Z,17.91
2018-09-14T01:12:22.070Z,17.92
2018-09-14T01:14:51.033Z,18.05
2018-09-14T01:17:20.126Z,18.14
2018-09-14T01:19:49.111Z,18.06
2018-09-14T01:22:18.058Z,17.91
2018-09-14T01:24:47.090Z,18.12
2018-09-14T01:27:16.117Z,18.09
2018-09-14T01:29:45.158Z,17.70
2018-09-14T01:32:14.112Z,17.86
2018-09-14T01:34:43.099Z,17.79
2018-09-14T01:37:12.026Z,17.97
2018-09-14T01:39:41.059Z,18.02
2018-09-14T01:42:10.050Z,17.96
2018-09-14T01:44:39.061Z,17.86
2018-09-14T01:47:08.002Z,18.00
2018-09-14T01:49:37.005Z,17.79
2018-09-14T01:52:05.966Z,18.08
2018-09-14T01:54:34.962Z,17.90
2018-09-14T01:57:03.975Z,17.98
2018-09-14T01:59:33.084Z,18.09
2018-09-14T02:02:02.050Z,18.16
2018-09-14T02:04:31.165Z,18.09
2018-09-14T02:07:00.075Z,18.04
2018-09-14T02:09:29.105Z,18.05
2018-09-14T02:11:58.062Z,18.30
2018-09-14T02:14:27.017Z,18.24
2018-09-14T02:16:56.110Z,18.15
2018-09-14T02:19:25.174Z,17.67
2018-09-14T02:21:54.292Z,17.98
2018-09-14T02:24:23.330Z,17.94
2018-09-14T02:26:52.318Z,18.09
2018-09-14T02:29:21.374Z,17.95
2018-09-14T02:31:50.397Z,17.82
2018-09-14T02:34:19.378Z,17.84
2018-09-14T02:36:48.365Z,17.86
2018-09-14T02:39:17.278Z,17.67
2018-09-14T02:41:46.489Z,18.09
2018-09-14T02:44:15.455Z,17.92
2018-09-14T02:46:44.410Z,17.81
2018-09-14T02:49:13.381Z,17.91
2018-09-14T02:51:42.507Z,17.77
2018-09-14T02:54:11.587Z,17.99
2018-09-14T02:56:40.658Z,17.99
2018-09-14T02:59:09.658Z,17.78
2018-09-14T03:01:38.694Z,18.11
2018-09-14T03:04:08.037Z,18.03
2018-09-14T03:06:37.097Z,17.68
2018-09-14T03:09:08.228Z,17.63
2018-09-14T03:11:37.270Z,17.52
2018-09-14T03:14:06.334Z,17.89
2018-09-14T03:16:35.374Z,17.85
2018-09-14T03:19:04.474Z,17.81
2018-09-14T03:21:33.515Z,17.81
2018-09-14T03:24:02.443Z,17.86
2018-09-14T03:26:31.405Z,17.96
2018-09-14T03:29:00.372Z,17.77
2018-09-14T03:31:29.406Z,17.90
2018-09-14T03:33:58.443Z,17.87
2018-09-14T03:36:27.446Z,18.03
2018-09-14T03:38:56.474Z,17.45
2018-09-14T03:41:25.465Z,17.76
2018-09-14T03:43:54.426Z,17.81
2018-09-14T03:46:23.483Z,17.47
2018-09-14T03:48:52.555Z,17.68
2018-09-14T03:51:21.599Z,17.74
2018-09-14T03:53:50.642Z,17.50
2018-09-14T03:56:19.610Z,17.74
2018-09-14T03:58:48.557Z,17.85
2018-09-14T04:01:17.567Z,17.65
2018-09-14T04:03:46.708Z,17.87
2018-09-14T04:06:15.835Z,17.78
2018-09-14T04:08:44.787Z,17.70
2018-09-14T04:11:13.798Z,17.67
2018-09-14T04:13:42.757Z,17.68
2018-09-14T04:16:11.843Z,17.72
2018-09-14T04:18:41.064Z,17.83
2018-09-14T04:21:10.087Z,17.84
2018-09-14T04:23:39.214Z,17.89
2018-09-14T04:26:08.122Z,17.73
2018-09-14T04:28:37.262Z,17.55
2018-09-14T04:31:06.338Z,17.76
2018-09-14T04:33:35.398Z,17.80
2018-09-14T04:36:04.550Z,17.97
2018-09-14T04:38:33.539Z,17.77
2018-09-14T04:41:02.467Z,17.82
2018-09-14T04:43:31.464Z,17.87
2018-09-14T04:46:00.523Z,17.88
2018-09-14T04:48:29.561Z,18.00
2018-09-14T04:50:58.697Z,17.94
2018-09-14T04:53:27.682Z,17.85
2018-09-14T04:55:56.778Z,17.73
2018-09-14T04:58:25.808Z,17.46
2018-09-14T05:00:54.855Z,17.48
2018-09-14T05:03:23.822Z,17.35
2018-09-14T05:05:52.871Z,17.35
2018-09-14T05:08:21.902Z,17.36
2018-09-14T05:10:51.021Z,17.48
2018-09-14T05:13:19.947Z,17.47
2018-09-14T05:15:48.950Z,17.38
2018-09-14T05:18:18.019Z,17.17
2018-09-14T05:20:47.169Z,17.11
2018-09-14T05:23:16.138Z,17.17
2018-09-14T05:25:45.147Z,17.20
2018-09-14T05:28:14.309Z,17.18
2018-09-14T05:30:43.771Z,17.48
2018-09-14T05:33:13.075Z,17.29
2018-09-14T05:35:42.247Z,17.37
2018-09-14T05:38:11.519Z,17.43
2018-09-14T05:40:40.904Z,17.48
2018-09-14T05:43:10.390Z,17.84
2018-09-14T05:45:39.786Z,17.81
2018-09-14T05:48:09.019Z,17.86
2018-09-14T05:50:38.039Z,17.80
2018-09-14T05:53:07.077Z,17.84
2018-09-14T05:55:42.542Z,17.67
2018-09-14T05:58:11.567Z,18.03
2018-09-14T06:00:40.534Z,17.92
2018-09-14T06:03:09.587Z,17.71
2018-09-14T06:05:38.647Z,17.95
2018-09-14T06:08:07.713Z,18.08
2018-09-14T06:10:36.653Z,18.06
2018-09-14T06:13:05.653Z,18.31
2018-09-14T06:15:34.712Z,18.39
2018-09-14T06:18:04.763Z,18.67
2018-09-14T06:20:33.770Z,18.73
2018-09-14T06:23:02.771Z,18.28
2018-09-14T06:25:31.757Z,18.06
2018-09-14T06:28:00.839Z,18.17
2018-09-14T06:30:29.833Z,18.42
2018-09-14T06:32:58.862Z,18.35
2018-09-14T06:35:27.801Z,18.46
2018-09-14T06:37:56.882Z,18.46
2018-09-14T06:40:25.847Z,19.25
2018-09-14T06:42:54.906Z,19.45
2018-09-14T06:45:23.924Z,19.47
2018-09-14T06:47:53.015Z,19.56
2018-09-14T06:50:22.013Z,19.66
2018-09-14T06:52:51.069Z,19.32
2018-09-14T06:55:20.033Z,19.50
2018-09-14T06:57:49.035Z,19.81
2018-09-14T07:00:18.095Z,19.96
2018-09-14T07:02:47.091Z,20.21
2018-09-14T07:05:16.106Z,20.14
2018-09-14T07:07:45.106Z,20.58
2018-09-14T07:10:14.078Z,20.81
2018-09-14T07:12:43.048Z,21.09
2018-09-14T07:15:11.978Z,20.66
2018-09-14T07:17:41.154Z,19.98
2018-09-14T07:20:10.423Z,20.00
2018-09-14T07:22:39.386Z,20.08
2018-09-14T07:25:08.429Z,19.97
2018-09-14T07:27:37.449Z,20.70
2018-09-14T07:30:06.877Z,20.36
2018-09-14T07:32:35.938Z,20.45
2018-09-14T07:35:04.940Z,20.33
2018-09-14T07:37:33.944Z,20.54
2018-09-14T07:40:02.878Z,20.58
2018-09-14T07:42:32.011Z,20.46
2018-09-14T07:45:00.953Z,20.82
2018-09-14T07:47:29.914Z,20.49
2018-09-14T07:49:58.834Z,20.40
2018-09-14T07:52:27.842Z,20.54
2018-09-14T07:54:56.761Z,20.74
2018-09-14T07:57:25.762Z,21.04
2018-09-14T07:59:54.750Z,20.95
2018-09-14T08:02:23.760Z,20.60
2018-09-14T08:04:52.744Z,20.88
2018-09-14T08:07:21.775Z,20.55
2018-09-14T08:09:50.798Z,19.89
2018-09-14T08:12:19.746Z,20.89
2018-09-14T08:14:48.697Z,20.44
2018-09-14T08:17:17.695Z,20.33
2018-09-14T08:19:46.597Z,19.52
2018-09-14T08:22:15.629Z,19.79
2018-09-14T08:24:44.575Z,19.50
2018-09-14T08:27:13.757Z,19.75
2018-09-14T08:29:42.698Z,20.31
2018-09-14T08:32:11.719Z,20.98
2018-09-14T08:34:40.711Z,21.42
2018-09-14T08:37:09.687Z,21.68
2018-09-14T08:39:38.694Z,21.68
2018-09-14T08:42:07.681Z,22.65
2018-09-14T08:44:36.679Z,21.92
2018-09-14T08:47:05.813Z,21.49
2018-09-14T08:49:34.786Z,22.73
2018-09-14T08:52:03.756Z,21.93
2018-09-14T08:54:32.909Z,21.64
2018-09-14T08:57:01.842Z,22.07
2018-09-14T08:59:30.850Z,21.80
2018-09-14T09:01:59.827Z,22.20
2018-09-14T09:04:28.943Z,22.22
2018-09-14T09:06:57.875Z,21.94
2018-09-14T09:09:26.853Z,21.57
2018-09-14T09:11:55.863Z,21.81
2018-09-14T09:14:24.982Z,21.98
2018-09-14T09:16:53.946Z,21.82
2018-09-14T09:19:22.908Z,22.31
2018-09-14T09:21:51.846Z,22.14
2018-09-14T09:24:20.811Z,22.89
2018-09-14T09:26:49.722Z,22.74
2018-09-14T09:29:18.775Z,22.34
2018-09-14T09:31:47.834Z,22.93
2018-09-14T09:34:17.003Z,21.98
2018-09-14T09:36:45.950Z,22.15
2018-09-14T09:39:14.987Z,22.93
2018-09-14T09:41:43.913Z,23.42
2018-09-14T09:44:12.846Z,23.64
2018-09-14T09:46:41.740Z,23.36
2018-09-14T09:49:10.687Z,24.38
2018-09-14T09:51:39.722Z,23.53
2018-09-14T09:54:08.753Z,23.15
2018-09-14T09:56:37.886Z,23.49
2018-09-14T09:59:06.886Z,24.68
2018-09-14T10:01:39.894Z,23.59
2018-09-14T10:04:13.999Z,24.20
2018-09-14T10:06:42.986Z,24.71
2018-09-14T10:09:11.948Z,24.43
2018-09-14T10:11:40.994Z,23.76
2018-09-14T10:14:10.060Z,24.63
2018-09-14T10:16:39.049Z,23.79
2018-09-14T10:19:08.067Z,25.40
2018-09-14T10:21:37.037Z,24.65
2018-09-14T10:24:06.053Z,24.28
2018-09-14T10:26:35.041Z,23.21
2018-09-14T10:29:04.059Z,22.65
2018-09-14T10:31:33.017Z,23.13
2018-09-14T10:34:02.112Z,22.90
2018-09-14T10:36:31.081Z,22.41
2018-09-14T10:39:00.047Z,22.52
2018-09-14T10:41:29.091Z,21.81
2018-09-14T10:43:58.170Z,22.19
2018-09-14T10:46:27.102Z,22.74
2018-09-14T10:48:56.086Z,22.51
2018-09-14T10:51:25.118Z,22.16
2018-09-14T10:53:54.091Z,21.89
2018-09-14T10:56:23.098Z,22.51
2018-09-14T10:58:52.153Z,23.20
2018-09-14T11:01:21.091Z,23.60
2018-09-14T11:03:50.077Z,23.10
2018-09-14T11:06:19.093Z,22.50
2018-09-14T11:08:48.098Z,22.39
2018-09-14T11:11:17.094Z,22.61
2018-09-14T11:13:46.155Z,22.45
2018-09-14T11:16:15.098Z,22.83
2018-09-14T11:18:44.185Z,23.34
2018-09-14T11:21:13.179Z,24.25
2018-09-14T11:23:42.189Z,23.62
2018-09-14T11:26:11.205Z,25.26
2018-09-14T11:28:40.189Z,25.94
2018-09-14T11:31:09.210Z,27.09
2018-09-14T11:33:38.229Z,26.60
2018-09-14T11:36:07.413Z,24.43
2018-09-14T11:38:36.443Z,25.17
2018-09-14T11:41:05.521Z,25.42
2018-09-14T11:43:34.458Z,25.26
2018-09-14T11:46:03.477Z,24.21
2018-09-14T11:48:32.517Z,23.55
2018-09-14T11:51:01.520Z,23.86
2018-09-14T11:53:30.529Z,24.92
2018-09-14T11:55:59.510Z,24.88
2018-09-14T11:58:28.506Z,24.80
2018-09-14T12:00:57.609Z,24.59
2018-09-14T12:03:26.566Z,24.97
2018-09-14T12:05:55.642Z,25.80
2018-09-14T12:08:24.581Z,25.31
2018-09-14T12:10:53.617Z,25.52
2018-09-14T12:13:22.642Z,24.80
2018-09-14T12:15:51.720Z,24.40
2018-09-14T12:18:21.066Z,24.77
2018-09-14T12:20:50.169Z,25.41
2018-09-14T12:23:19.173Z,25.05
2018-09-14T12:25:48.327Z,24.97
2018-09-14T12:28:17.335Z,24.03
2018-09-14T12:30:46.266Z,23.85
2018-09-14T12:33:15.258Z,24.63
2018-09-14T12:35:44.384Z,23.06
2018-09-14T12:38:13.381Z,23.66
2018-09-14T12:40:42.393Z,23.22
2018-09-14T12:43:11.358Z,24.00
2018-09-14T12:45:40.350Z,24.06
2018-09-14T12:48:09.318Z,24.11
2018-09-14T12:50:38.398Z,24.29
2018-09-14T12:53:07.366Z,23.81
2018-09-14T12:55:36.398Z,23.69
2018-09-14T12:58:05.381Z,24.07
2018-09-14T13:00:34.415Z,23.74
2018-09-14T13:03:03.357Z,23.79
2018-09-14T13:05:32.310Z,23.51
2018-09-14T13:08:01.241Z,23.51
2018-09-14T13:10:30.289Z,23.49
2018-09-14T13:12:59.293Z,24.05
2018-09-14T13:15:28.338Z,23.57
2018-09-14T13:17:57.326Z,23.72
2018-09-14T13:20:26.337Z,23.68
2018-09-14T13:22:55.314Z,23.35
2018-09-14T13:25:24.275Z,23.64
2018-09-14T13:27:53.353Z,23.57
2018-09-14T13:30:22.345Z,24.04
2018-09-14T13:32:52.144Z,23.85
2018-09-14T13:35:22.981Z,24.28
2018-09-14T13:37:52.641Z,24.42
2018-09-14T13:40:22.010Z,23.57
2018-09-14T13:42:51.418Z,23.78
2018-09-14T13:45:20.539Z,23.87
2018-09-14T13:47:49.449Z,23.98
2018-09-14T13:50:18.459Z,23.33
2018-09-14T13:52:47.469Z,23.59
2018-09-14T13:55:16.561Z,23.26
2018-09-14T13:57:52.198Z,23.67
2018-09-14T14:00:21.225Z,24.57
2018-09-14T14:02:50.292Z,25.27
2018-09-14T14:05:19.275Z,27.03
2018-09-14T14:07:48.198Z,27.26
2018-09-14T14:10:17.225Z,26.55
2018-09-14T14:12:46.217Z,26.36
2018-09-14T14:15:15.376Z,25.05
2018-09-14T14:17:44.389Z,26.05
2018-09-14T14:20:13.522Z,25.90
2018-09-14T14:22:42.537Z,25.68
2018-09-14T14:25:11.541Z,25.11
2018-09-14T14:27:40.566Z,25.18
2018-09-14T14:30:09.600Z,26.12
2018-09-14T14:32:38.563Z,27.53
2018-09-14T14:35:07.589Z,27.18
2018-09-14T14:37:36.557Z,26.69
2018-09-14T14:40:05.620Z,27.42
2018-09-14T14:42:34.574Z,26.66
2018-09-14T14:45:03.547Z,26.06
2018-09-14T14:47:32.462Z,25.33
2018-09-14T14:50:01.410Z,25.65
2018-09-14T14:52:30.429Z,24.50
2018-09-14T14:54:59.402Z,25.62
2018-09-14T14:57:28.373Z,25.46
2018-09-14T14:59:57.376Z,25.44
2018-09-14T15:02:26.412Z,25.04
2018-09-14T15:04:55.421Z,25.06
2018-09-14T15:07:24.445Z,25.51
2018-09-14T15:09:53.541Z,25.42
2018-09-14T15:12:22.499Z,24.79
2018-09-14T15:14:51.510Z,25.10
2018-09-14T15:17:20.632Z,24.21
2018-09-14T15:19:49.550Z,23.99
2018-09-14T15:22:18.546Z,24.72
2018-09-14T15:24:47.554Z,24.95
2018-09-14T15:27:16.659Z,25.20
2018-09-14T15:29:45.634Z,25.41
2018-09-14T15:32:14.614Z,25.20
2018-09-14T15:34:43.618Z,25.11
2018-09-14T15:37:12.589Z,25.49
2018-09-14T15:39:41.538Z,25.15
2018-09-14T15:42:10.579Z,25.11
2018-09-14T15:44:39.533Z,24.80
2018-09-14T15:47:08.518Z,24.69
2018-09-14T15:49:37.412Z,24.53
2018-09-14T15:52:06.413Z,24.66
2018-09-14T15:54:35.366Z,24.61
2018-09-14T15:57:04.421Z,24.55
2018-09-14T15:59:33.394Z,24.49
2018-09-14T16:02:02.388Z,24.51
2018-09-14T16:04:31.356Z,24.56
2018-09-14T16:07:00.415Z,24.71
2018-09-14T16:09:29.334Z,24.57
2018-09-14T16:11:58.309Z,24.50
2018-09-14T16:14:27.318Z,24.65
2018-09-14T16:16:56.286Z,24.40
2018-09-14T16:19:25.274Z,24.42
2018-09-14T16:21:54.287Z,24.88
2018-09-14T16:24:23.238Z,24.37
2018-09-14T16:26:52.427Z,24.92
2018-09-14T16:29:21.461Z,24.71
2018-09-14T16:31:50.502Z,24.39
2018-09-14T16:34:19.384Z,24.58
2018-09-14T16:36:48.424Z,24.56
2018-09-14T16:39:17.509Z,24.28
2018-09-14T16:41:46.557Z,24.46
2018-09-14T16:44:15.533Z,24.46
2018-09-14T16:46:44.520Z,24.69
2018-09-14T16:49:13.465Z,24.41
2018-09-14T16:51:42.528Z,24.48
2018-09-14T16:54:11.441Z,24.68
2018-09-14T16:56:40.642Z,24.56
2018-09-14T16:59:09.606Z,24.34
2018-09-14T17:01:38.568Z,24.14
2018-09-14T17:04:07.555Z,24.57
2018-09-14T17:06:36.571Z,24.41
2018-09-14T17:09:07.716Z,24.57
2018-09-14T17:11:36.774Z,24.55
2018-09-14T17:14:06.633Z,24.46
2018-09-14T17:16:35.619Z,24.26
2018-09-14T17:19:04.594Z,23.89
2018-09-14T17:21:33.650Z,23.96
2018-09-14T17:24:02.630Z,23.90
2018-09-14T17:26:31.684Z,23.95
2018-09-14T17:29:00.695Z,24.08
2018-09-14T17:31:29.814Z,23.81
2018-09-14T17:33:58.861Z,24.05
2018-09-14T17:36:27.882Z,23.93
2018-09-14T17:38:56.853Z,23.66
2018-09-14T17:41:25.906Z,23.43
2018-09-14T17:43:54.938Z,23.59
2018-09-14T17:46:23.958Z,23.42
2018-09-14T17:48:52.955Z,23.51
2018-09-14T17:51:21.985Z,23.34
2018-09-14T17:53:50.935Z,23.13
2018-09-14T17:56:19.985Z,22.91
2018-09-14T17:58:49.218Z,22.74
2018-09-14T18:01:18.210Z,22.85
2018-09-14T18:03:47.276Z,22.92
2018-09-14T18:06:16.281Z,22.83
2018-09-14T18:08:45.310Z,22.75
2018-09-14T18:11:14.396Z,22.62
2018-09-14T18:13:43.435Z,22.79
2018-09-14T18:16:12.509Z,22.73
2018-09-14T18:18:41.481Z,22.64
2018-09-14T18:21:10.434Z,22.65
2018-09-14T18:23:39.454Z,22.42
2018-09-14T18:26:08.487Z,22.46
2018-09-14T18:28:37.514Z,22.36
2018-09-14T18:31:06.717Z,22.24
2018-09-14T18:33:35.803Z,22.46
2018-09-14T18:36:04.794Z,22.08
2018-09-14T18:38:33.744Z,22.07
2018-09-14T18:41:02.691Z,22.19
2018-09-14T18:43:31.736Z,22.11
2018-09-14T18:46:00.810Z,22.11
2018-09-14T18:48:29.880Z,22.18
2018-09-14T18:50:58.814Z,22.03
2018-09-14T18:53:27.860Z,22.06
2018-09-14T18:55:56.792Z,22.04
2018-09-14T18:58:25.864Z,21.80
2018-09-14T19:00:54.805Z,22.13
2018-09-14T19:03:23.779Z,21.71
2018-09-14T19:05:52.722Z,21.88
2018-09-14T19:08:22.162Z,21.71
2018-09-14T19:10:51.213Z,21.93
2018-09-14T19:13:20.155Z,21.54
2018-09-14T19:15:49.269Z,21.55
2018-09-14T19:18:18.182Z,21.39
2018-09-14T19:20:47.149Z,21.54
2018-09-14T19:23:16.115Z,21.49
2018-09-14T19:25:45.165Z,21.55
2018-09-14T19:28:14.268Z,21.51
2018-09-14T19:30:43.265Z,21.36
2018-09-14T19:33:12.183Z,21.25
2018-09-14T19:35:41.186Z,21.31
2018-09-14T19:38:10.122Z,21.22
2018-09-14T19:40:39.095Z,21.42
2018-09-14T19:43:08.031Z,21.09
2018-09-14T19:45:36.986Z,21.17
2018-09-14T19:48:06.064Z,21.01
2018-09-14T19:50:35.014Z,20.98
2018-09-14T19:53:03.947Z,21.15
2018-09-14T19:55:33.007Z,21.14
2018-09-14T19:58:01.946Z,21.08
2018-09-14T20:00:30.922Z,20.76
2018-09-14T20:02:59.853Z,20.91
2018-09-14T20:05:28.834Z,20.79
2018-09-14T20:07:57.797Z,20.66
2018-09-14T20:10:26.802Z,20.53
2018-09-14T20:12:55.737Z,20.55
2018-09-14T20:15:24.654Z,20.75
2018-09-14T20:17:53.661Z,20.54
2018-09-14T20:20:22.734Z,20.74
2018-09-14T20:22:51.786Z,20.58
2018-09-14T20:25:20.709Z,20.40
2018-09-14T20:27:49.810Z,20.42
2018-09-14T20:30:18.835Z,20.18
2018-09-14T20:32:47.781Z,20.52
2018-09-14T20:35:16.725Z,20.45
2018-09-14T20:37:45.806Z,20.45
2018-09-14T20:40:14.759Z,19.96
2018-09-14T20:42:43.786Z,20.37
2018-09-14T20:45:12.734Z,20.37
2018-09-14T20:47:41.869Z,20.30
2018-09-14T20:50:10.775Z,20.60
2018-09-14T20:52:39.785Z,20.44
2018-09-14T20:55:08.722Z,20.50
2018-09-14T20:57:37.698Z,20.63
2018-09-14T21:00:06.707Z,20.09
2018-09-14T21:02:35.702Z,20.35
2018-09-14T21:05:04.705Z,20.40
2018-09-14T21:07:33.726Z,20.27
2018-09-14T21:10:02.690Z,20.16
2018-09-14T21:12:31.674Z,20.17
2018-09-14T21:15:00.712Z,20.09
2018-09-14T21:17:29.700Z,20.10
2018-09-14T21:19:58.633Z,19.46
2018-09-14T21:22:27.663Z,19.71
2018-09-14T21:24:56.707Z,19.69
2018-09-14T21:27:25.731Z,19.59
2018-09-14T21:29:54.732Z,19.74
2018-09-14T21:32:23.722Z,19.74
2018-09-14T21:34:52.703Z,19.71
2018-09-14T21:37:21.733Z,19.70
2018-09-14T21:39:50.730Z,19.62
2018-09-14T21:42:19.709Z,19.55
2018-09-14T21:44:48.683Z,19.68
2018-09-14T21:47:17.766Z,19.53
2018-09-14T21:49:46.793Z,19.59
2018-09-14T21:52:15.775Z,19.45
2018-09-14T21:54:44.773Z,19.39
2018-09-14T21:57:13.763Z,19.18
2018-09-14T21:59:42.700Z,19.02
2018-09-14T22:02:11.691Z,19.22
2018-09-14T22:04:40.682Z,19.35
2018-09-14T22:07:10.005Z,19.33
2018-09-14T22:09:39.050Z,19.23
2018-09-14T22:12:08.204Z,18.88
2018-09-14T22:14:37.175Z,18.58
2018-09-14T22:17:06.148Z,18.96
2018-09-14T22:19:35.092Z,18.73
2018-09-14T22:22:04.209Z,18.91
2018-09-14T22:24:33.073Z,18.93
2018-09-14T22:27:02.076Z,19.01
2018-09-14T22:29:31.058Z,18.92
2018-09-14T22:32:00.023Z,18.67
2018-09-14T22:34:29.068Z,18.64
2018-09-14T22:36:58.168Z,18.93
2018-09-14T22:39:27.154Z,19.13
2018-09-14T22:41:56.144Z,18.98
2018-09-14T22:44:25.131Z,19.12
2018-09-14T22:46:54.139Z,19.10
2018-09-14T22:49:23.111Z,18.79
2018-09-14T22:51:52.341Z,18.69
2018-09-14T22:54:21.350Z,18.40
2018-09-14T22:56:50.302Z,18.48
2018-09-14T22:59:19.306Z,18.50
2018-09-14T23:01:52.330Z,18.61
2018-09-14T23:04:21.602Z,18.81
2018-09-14T23:06:51.120Z,18.57
2018-09-14T23:09:20.174Z,18.37
2018-09-14T23:11:49.111Z,18.48
2018-09-14T23:14:18.110Z,18.29
2018-09-14T23:16:47.106Z,18.33
2018-09-14T23:19:16.117Z,18.08
2018-09-14T23:21:45.184Z,18.18
2018-09-14T23:24:14.164Z,17.87
2018-09-14T23:26:43.294Z,17.82
2018-09-14T23:29:12.370Z,17.77
2018-09-14T23:31:41.369Z,17.87
2018-09-14T23:34:10.325Z,18.05
2018-09-14T23:36:39.274Z,18.10
2018-09-14T23:39:09.899Z,18.13
2018-09-14T23:41:38.881Z,17.94
2018-09-14T23:44:08.124Z,17.86
2018-09-14T23:46:37.113Z,17.79
2018-09-14T23:49:06.106Z,17.87
2018-09-14T23:51:35.008Z,17.67
2018-09-14T23:54:04.021Z,17.90
2018-09-14T23:56:32.961Z,18.05
2018-09-14T23:59:01.961Z,18.01
